sensor_id;sensor_type;location;lat;lon;timestamp;pressure;altitude;pressure_sealevel;temperature;humidity
32638;BME280;19045;52.268;10.506;2023-04-27T00:00:36;100977.03;;;6.18;82.89
32638;BME280;19045;52.268;10.506;2023-04-27T00:03:03;100977.22;;;6.17;82.74
32638;BME280;19045;52.268;10.506;2023-04-27T00:05:33;100971.94;;;6.10;83.56
32638;BME280;19045;52.268;10.506;2023-04-27T00:08:00;100980.59;;;6.06;83.54
32638;BME280;19045;52.268;10.506;2023-04-27T00:10:26;100971.53;;;6.07;83.86
32638;BME280;19045;52.268;10.506;2023-04-27T00:12:53;100972.38;;;6.07;83.99
32638;BME280;19045;52.268;10.506;2023-04-27T00:15:20;100971.78;;;6.05;84.21
32638;BME280;19045;52.268;10.506;2023-04-27T00:17:48;100973.06;;;5.96;84.45
32638;BME280;19045;52.268;10.506;2023-04-27T00:20:15;100977.78;;;5.94;84.58
32638;BME280;19045;52.268;10.506;2023-04-27T00:22:41;100972.25;;;5.96;84.31
32638;BME280;19045;52.268;10.506;2023-04-27T00:25:08;100973.66;;;5.98;84.48
32638;BME280;19045;52.268;10.506;2023-04-27T00:27:36;100964.41;;;6.01;85.04
32638;BME280;19045;52.268;10.506;2023-04-27T00:30:06;100978.00;;;5.93;85.59
32638;BME280;19045;52.268;10.506;2023-04-27T00:32:33;100968.56;;;5.90;85.66
32638;BME280;19045;52.268;10.506;2023-04-27T00:35:01;100965.47;;;5.93;85.92
32638;BME280;19045;52.268;10.506;2023-04-27T00:37:28;100961.38;;;5.84;86.07
32638;BME280;19045;52.268;10.506;2023-04-27T00:39:54;100974.72;;;5.84;86.34
32638;BME280;19045;52.268;10.506;2023-04-27T00:42:21;100967.16;;;5.81;86.63
32638;BME280;19045;52.268;10.506;2023-04-27T00:44:49;100966.75;;;5.78;86.77
32638;BME280;19045;52.268;10.506;2023-04-27T00:47:15;100967.78;;;5.90;86.30
32638;BME280;19045;52.268;10.506;2023-04-27T00:49:43;100975.50;;;5.98;86.00
32638;BME280;19045;52.268;10.506;2023-04-27T00:52:11;100963.03;;;5.92;86.14
32638;BME280;19045;52.268;10.506;2023-04-27T00:54:38;100980.06;;;5.91;86.73
32638;BME280;19045;52.268;10.506;2023-04-27T00:57:04;100975.16;;;5.88;86.88
32638;BME280;19045;52.268;10.506;2023-04-27T00:59:31;100976.16;;;5.80;87.31
32638;BME280;19045;52.268;10.506;2023-04-27T01:01:58;100974.31;;;5.81;87.43
32638;BME280;19045;52.268;10.506;2023-04-27T01:04:25;100978.25;;;5.78;87.90
32638;BME280;19045;52.268;10.506;2023-04-27T01:06:53;100979.53;;;5.69;87.82
32638;BME280;19045;52.268;10.506;2023-04-27T01:09:21;100978.47;;;5.77;88.01
32638;BME280;19045;52.268;10.506;2023-04-27T01:11:47;100977.66;;;5.76;88.15
32638;BME280;19045;52.268;10.506;2023-04-27T01:14:14;100973.97;;;5.70;88.20
32638;BME280;19045;52.268;10.506;2023-04-27T01:16:41;100977.28;;;5.66;88.68
32638;BME280;19045;52.268;10.506;2023-04-27T01:19:08;100980.56;;;5.61;88.92
32638;BME280;19045;52.268;10.506;2023-04-27T01:21:35;100978.13;;;5.60;88.63
32638;BME280;19045;52.268;10.506;2023-04-27T01:24:04;100987.13;;;5.59;88.86
32638;BME280;19045;52.268;10.506;2023-04-27T01:26:31;100984.91;;;5.56;88.96
32638;BME280;19045;52.268;10.506;2023-04-27T01:28:58;100985.31;;;5.59;89.34
32638;BME280;19045;52.268;10.506;2023-04-27T01:31:25;100976.88;;;5.62;89.14
32638;BME280;19045;52.268;10.506;2023-04-27T01:33:52;100986.50;;;5.70;88.75
32638;BME280;19045;52.268;10.506;2023-04-27T01:36:18;100988.53;;;5.68;88.85
32638;BME280;19045;52.268;10.506;2023-04-27T01:38:45;100982.41;;;5.61;89.19
32638;BME280;19045;52.268;10.506;2023-04-27T01:41:13;100988.97;;;5.65;88.70
32638;BME280;19045;52.268;10.506;2023-04-27T01:43:39;100987.34;;;5.57;89.12
32638;BME280;19045;52.268;10.506;2023-04-27T01:46:09;100993.09;;;5.54;89.56
32638;BME280;19045;52.268;10.506;2023-04-27T01:48:37;101005.16;;;5.57;89.42
32638;BME280;19045;52.268;10.506;2023-04-27T01:51:04;100999.84;;;5.57;89.40
32638;BME280;19045;52.268;10.506;2023-04-27T01:53:30;101002.50;;;5.57;89.41
32638;BME280;19045;52.268;10.506;2023-04-27T01:55:57;101007.47;;;5.53;89.14
32638;BME280;19045;52.268;10.506;2023-04-27T01:58:25;101005.38;;;5.55;89.19
32638;BME280;19045;52.268;10.506;2023-04-27T02:00:52;101008.06;;;5.55;89.42
32638;BME280;19045;52.268;10.506;2023-04-27T02:03:19;101014.22;;;5.49;90.29
32638;BME280;19045;52.268;10.506;2023-04-27T02:05:45;101012.00;;;5.40;91.00
32638;BME280;19045;52.268;10.506;2023-04-27T02:08:12;101023.47;;;5.47;90.22
32638;BME280;19045;52.268;10.506;2023-04-27T02:10:39;101014.00;;;5.51;89.53
32638;BME280;19045;52.268;10.506;2023-04-27T02:13:06;101036.16;;;5.51;89.71
32638;BME280;19045;52.268;10.506;2023-04-27T02:15:35;101025.09;;;5.48;89.67
32638;BME280;19045;52.268;10.506;2023-04-27T02:18:02;101035.75;;;5.48;89.89
32638;BME280;19045;52.268;10.506;2023-04-27T02:20:29;101039.03;;;5.43;89.99
32638;BME280;19045;52.268;10.506;2023-04-27T02:22:55;101039.66;;;5.45;90.12
32638;BME280;19045;52.268;10.506;2023-04-27T02:25:22;101040.66;;;5.44;89.73
32638;BME280;19045;52.268;10.506;2023-04-27T02:27:49;101041.50;;;5.45;89.64
32638;BME280;19045;52.268;10.506;2023-04-27T02:30:15;101050.91;;;5.41;90.41
32638;BME280;19045;52.268;10.506;2023-04-27T02:32:43;101056.03;;;5.49;90.59
32638;BME280;19045;52.268;10.506;2023-04-27T02:35:10;101057.03;;;5.54;88.95
32638;BME280;19045;52.268;10.506;2023-04-27T02:37:37;101050.06;;;5.60;87.91
32638;BME280;19045;52.268;10.506;2023-04-27T02:40:04;101055.78;;;5.70;86.72
32638;BME280;19045;52.268;10.506;2023-04-27T02:42:32;101051.22;;;5.77;85.25
32638;BME280;19045;52.268;10.506;2023-04-27T02:44:59;101058.00;;;5.80;85.55
32638;BME280;19045;52.268;10.506;2023-04-27T02:47:25;101058.00;;;5.93;84.37
32638;BME280;19045;52.268;10.506;2023-04-27T02:49:53;101053.28;;;5.88;84.29
32638;BME280;19045;52.268;10.506;2023-04-27T02:52:20;101059.88;;;5.86;84.05
32638;BME280;19045;52.268;10.506;2023-04-27T02:54:47;101058.41;;;5.90;83.38
32638;BME280;19045;52.268;10.506;2023-04-27T02:57:13;101049.38;;;5.84;84.07
32638;BME280;19045;52.268;10.506;2023-04-27T02:59:40;101050.81;;;5.87;83.54
32638;BME280;19045;52.268;10.506;2023-04-27T03:02:07;101044.47;;;5.81;84.14
32638;BME280;19045;52.268;10.506;2023-04-27T03:04:33;101061.47;;;5.87;83.74
32638;BME280;19045;52.268;10.506;2023-04-27T03:07:02;101053.47;;;5.93;82.68
32638;BME280;19045;52.268;10.506;2023-04-27T03:09:29;101060.25;;;5.83;83.64
32638;BME280;19045;52.268;10.506;2023-04-27T03:11:55;101055.78;;;5.77;84.01
32638;BME280;19045;52.268;10.506;2023-04-27T03:14:22;101055.75;;;5.83;83.75
32638;BME280;19045;52.268;10.506;2023-04-27T03:16:48;101058.63;;;5.82;83.48
32638;BME280;19045;52.268;10.506;2023-04-27T03:19:15;101054.94;;;5.76;83.33
32638;BME280;19045;52.268;10.506;2023-04-27T03:21:42;101055.78;;;5.70;83.68
32638;BME280;19045;52.268;10.506;2023-04-27T03:24:10;101052.47;;;5.74;83.53
32638;BME280;19045;52.268;10.506;2023-04-27T03:26:36;101059.06;;;5.72;83.96
32638;BME280;19045;52.268;10.506;2023-04-27T03:29:03;101067.06;;;5.65;83.89
32638;BME280;19045;52.268;10.506;2023-04-27T03:31:30;101061.50;;;5.67;83.71
32638;BME280;19045;52.268;10.506;2023-04-27T03:33:56;101065.44;;;5.58;83.82
32638;BME280;19045;52.268;10.506;2023-04-27T03:36:23;101071.00;;;5.56;84.54
32638;BME280;19045;52.268;10.506;2023-04-27T03:38:51;101069.75;;;5.52;84.42
32638;BME280;19045;52.268;10.506;2023-04-27T03:41:19;101071.59;;;5.52;84.65
32638;BME280;19045;52.268;10.506;2023-04-27T03:43:45;101071.41;;;5.53;84.53
32638;BME280;19045;52.268;10.506;2023-04-27T03:46:13;101072.22;;;5.47;84.76
32638;BME280;19045;52.268;10.506;2023-04-27T03:48:39;101077.53;;;5.47;84.48
32638;BME280;19045;52.268;10.506;2023-04-27T03:51:08;101076.13;;;5.45;85.25
32638;BME280;19045;52.268;10.506;2023-04-27T03:53:34;101079.00;;;5.50;84.66
32638;BME280;19045;52.268;10.506;2023-04-27T03:56:01;101079.81;;;5.44;85.20
32638;BME280;19045;52.268;10.506;2023-04-27T03:58:30;101077.38;;;5.42;85.37
32638;BME280;19045;52.268;10.506;2023-04-27T04:00:56;101077.13;;;5.44;85.56
32638;BME280;19045;52.268;10.506;2023-04-27T04:03:23;101075.13;;;5.39;85.11
32638;BME280;19045;52.268;10.506;2023-04-27T04:05:50;101085.38;;;5.36;85.73
32638;BME280;19045;52.268;10.506;2023-04-27T04:08:16;101087.81;;;5.31;86.32
32638;BME280;19045;52.268;10.506;2023-04-27T04:10:43;101090.28;;;5.19;86.91
32638;BME280;19045;52.268;10.506;2023-04-27T04:13:09;101086.63;;;5.20;87.10
32638;BME280;19045;52.268;10.506;2023-04-27T04:15:37;101086.19;;;5.16;86.67
32638;BME280;19045;52.268;10.506;2023-04-27T04:18:04;101081.69;;;5.17;87.27
32638;BME280;19045;52.268;10.506;2023-04-27T04:20:33;101090.91;;;5.08;87.62
32638;BME280;19045;52.268;10.506;2023-04-27T04:23:00;101084.56;;;5.02;88.21
32638;BME280;19045;52.268;10.506;2023-04-27T04:25:26;101085.78;;;5.00;88.41
32638;BME280;19045;52.268;10.506;2023-04-27T04:27:53;101094.78;;;4.99;88.82
32638;BME280;19045;52.268;10.506;2023-04-27T04:30:20;101092.53;;;4.89;89.13
32638;BME280;19045;52.268;10.506;2023-04-27T04:32:48;101098.03;;;4.88;90.05
32638;BME280;19045;52.268;10.506;2023-04-27T04:35:15;101103.19;;;4.96;88.93
32638;BME280;19045;52.268;10.506;2023-04-27T04:37:43;101107.47;;;4.71;90.38
32638;BME280;19045;52.268;10.506;2023-04-27T04:40:11;101103.34;;;4.75;90.48
32638;BME280;19045;52.268;10.506;2023-04-27T04:42:38;101101.75;;;4.74;90.83
32638;BME280;19045;52.268;10.506;2023-04-27T04:45:06;101104.59;;;4.72;90.38
32638;BME280;19045;52.268;10.506;2023-04-27T04:47:33;101109.91;;;4.65;90.77
32638;BME280;19045;52.268;10.506;2023-04-27T04:50:01;101119.09;;;4.63;91.53
32638;BME280;19045;52.268;10.506;2023-04-27T04:52:28;101122.19;;;4.66;91.55
32638;BME280;19045;52.268;10.506;2023-04-27T04:54:54;101128.34;;;4.67;90.99
32638;BME280;19045;52.268;10.506;2023-04-27T04:57:21;101121.56;;;4.64;91.38
32638;BME280;19045;52.268;10.506;2023-04-27T04:59:48;101118.31;;;4.69;91.47
32638;BME280;19045;52.268;10.506;2023-04-27T05:02:14;101116.06;;;4.79;90.82
32638;BME280;19045;52.268;10.506;2023-04-27T05:04:41;101115.25;;;4.98;91.16
32638;BME280;19045;52.268;10.506;2023-04-27T05:07:09;101116.69;;;4.94;90.52
32638;BME280;19045;52.268;10.506;2023-04-27T05:09:37;101116.09;;;5.12;89.69
32638;BME280;19045;52.268;10.506;2023-04-27T05:12:04;101119.38;;;5.34;88.53
32638;BME280;19045;52.268;10.506;2023-04-27T05:14:31;101110.97;;;5.50;87.22
32638;BME280;19045;52.268;10.506;2023-04-27T05:16:57;101115.50;;;5.43;89.18
32638;BME280;19045;52.268;10.506;2023-04-27T05:19:24;101114.03;;;5.40;87.79
32638;BME280;19045;52.268;10.506;2023-04-27T05:21:53;101124.88;;;5.65;87.09
32638;BME280;19045;52.268;10.506;2023-04-27T05:24:21;101117.06;;;5.83;86.15
32638;BME280;19045;52.268;10.506;2023-04-27T05:26:48;101126.59;;;6.17;84.30
32638;BME280;19045;52.268;10.506;2023-04-27T05:29:14;101128.31;;;5.98;83.99
32638;BME280;19045;52.268;10.506;2023-04-27T05:31:41;101133.50;;;6.38;84.31
32638;BME280;19045;52.268;10.506;2023-04-27T05:34:20;101127.00;;;6.20;82.25
32638;BME280;19045;52.268;10.506;2023-04-27T05:36:46;101130.16;;;6.04;82.77
32638;BME280;19045;52.268;10.506;2023-04-27T05:39:13;101136.47;;;6.23;82.43
32638;BME280;19045;52.268;10.506;2023-04-27T05:41:41;101134.34;;;6.38;80.90
32638;BME280;19045;52.268;10.506;2023-04-27T05:44:08;101141.81;;;6.61;81.01
32638;BME280;19045;52.268;10.506;2023-04-27T05:46:35;101138.41;;;6.85;79.08
32638;BME280;19045;52.268;10.506;2023-04-27T05:49:02;101136.63;;;7.04;77.86
32638;BME280;19045;52.268;10.506;2023-04-27T05:51:28;101145.97;;;7.44;78.15
32638;BME280;19045;52.268;10.506;2023-04-27T05:53:55;101144.81;;;7.34;73.89
32638;BME280;19045;52.268;10.506;2023-04-27T05:56:24;101146.78;;;6.51;77.61
32638;BME280;19045;52.268;10.506;2023-04-27T05:58:52;101147.63;;;6.51;78.39
32638;BME280;19045;52.268;10.506;2023-04-27T06:01:18;101145.75;;;6.90;78.58
32638;BME280;19045;52.268;10.506;2023-04-27T06:03:45;101148.38;;;7.27;75.51
32638;BME280;19045;52.268;10.506;2023-04-27T06:06:12;101159.28;;;7.75;75.17
32638;BME280;19045;52.268;10.506;2023-04-27T06:08:39;101161.13;;;7.93;72.51
32638;BME280;19045;52.268;10.506;2023-04-27T06:11:05;101165.25;;;8.32;71.43
32638;BME280;19045;52.268;10.506;2023-04-27T06:13:32;101157.97;;;8.57;69.92
32638;BME280;19045;52.268;10.506;2023-04-27T06:16:00;101155.97;;;8.82;69.36
32638;BME280;19045;52.268;10.506;2023-04-27T06:18:27;101167.25;;;9.14;67.65
32638;BME280;19045;52.268;10.506;2023-04-27T06:20:57;101161.69;;;8.86;66.30
32638;BME280;19045;52.268;10.506;2023-04-27T06:23:24;101162.72;;;8.85;67.77
32638;BME280;19045;52.268;10.506;2023-04-27T06:25:51;101177.75;;;9.16;64.57
32638;BME280;19045;52.268;10.506;2023-04-27T06:28:18;101184.44;;;9.37;63.21
32638;BME280;19045;52.268;10.506;2023-04-27T06:31:04;101177.25;;;9.60;62.87
32638;BME280;19045;52.268;10.506;2023-04-27T06:33:31;101168.16;;;9.73;61.90
32638;BME280;19045;52.268;10.506;2023-04-27T06:35:57;101180.28;;;9.99;59.71
32638;BME280;19045;52.268;10.506;2023-04-27T06:38:25;101176.16;;;10.08;58.87
32638;BME280;19045;52.268;10.506;2023-04-27T06:40:52;101178.06;;;10.19;57.67
32638;BME280;19045;52.268;10.506;2023-04-27T06:43:18;101170.69;;;9.91;57.28
32638;BME280;19045;52.268;10.506;2023-04-27T06:45:45;101173.84;;;10.00;57.30
32638;BME280;19045;52.268;10.506;2023-04-27T06:48:13;101181.66;;;10.24;56.47
32638;BME280;19045;52.268;10.506;2023-04-27T06:50:40;101187.50;;;10.33;56.95
32638;BME280;19045;52.268;10.506;2023-04-27T06:53:06;101177.09;;;10.36;55.72
32638;BME280;19045;52.268;10.506;2023-04-27T06:55:33;101187.19;;;10.58;55.07
32638;BME280;19045;52.268;10.506;2023-04-27T06:58:01;101180.91;;;10.52;55.36
32638;BME280;19045;52.268;10.506;2023-04-27T07:00:28;101179.16;;;10.86;53.89
32638;BME280;19045;52.268;10.506;2023-04-27T07:02:55;101181.75;;;11.09;53.82
32638;BME280;19045;52.268;10.506;2023-04-27T07:05:23;101180.47;;;11.28;52.66
32638;BME280;19045;52.268;10.506;2023-04-27T07:07:50;101178.50;;;11.57;52.09
32638;BME280;19045;52.268;10.506;2023-04-27T07:10:17;101180.81;;;11.82;51.89
32638;BME280;19045;52.268;10.506;2023-04-27T07:12:43;101191.47;;;11.93;50.66
32638;BME280;19045;52.268;10.506;2023-04-27T07:15:10;101191.63;;;11.54;51.89
32638;BME280;19045;52.268;10.506;2023-04-27T07:17:37;101185.78;;;11.73;50.83
32638;BME280;19045;52.268;10.506;2023-04-27T07:20:05;101186.84;;;11.89;50.30
32638;BME280;19045;52.268;10.506;2023-04-27T07:22:33;101185.03;;;11.95;49.84
32638;BME280;19045;52.268;10.506;2023-04-27T07:24:59;101180.13;;;12.08;49.29
32638;BME280;19045;52.268;10.506;2023-04-27T07:27:26;101178.25;;;12.30;47.37
32638;BME280;19045;52.268;10.506;2023-04-27T07:29:53;101187.22;;;12.58;46.85
32638;BME280;19045;52.268;10.506;2023-04-27T07:32:20;101183.22;;;12.60;47.82
32638;BME280;19045;52.268;10.506;2023-04-27T07:34:47;101184.03;;;12.82;47.47
32638;BME280;19045;52.268;10.506;2023-04-27T07:37:14;101191.44;;;12.97;46.89
32638;BME280;19045;52.268;10.506;2023-04-27T07:39:43;101191.53;;;12.80;47.38
32638;BME280;19045;52.268;10.506;2023-04-27T07:44:37;101192.78;;;11.58;48.10
32638;BME280;19045;52.268;10.506;2023-04-27T07:47:04;101190.22;;;11.18;50.06
32638;BME280;19045;52.268;10.506;2023-04-27T07:49:31;101193.00;;;11.23;49.17
32638;BME280;19045;52.268;10.506;2023-04-27T07:51:59;101194.75;;;11.96;47.74
32638;BME280;19045;52.268;10.506;2023-04-27T07:54:26;101192.47;;;11.71;48.16
32638;BME280;19045;52.268;10.506;2023-04-27T07:56:54;101188.03;;;11.31;47.60
32638;BME280;19045;52.268;10.506;2023-04-27T07:59:21;101192.22;;;11.56;48.15
32638;BME280;19045;52.268;10.506;2023-04-27T08:01:49;101185.91;;;12.38;46.38
32638;BME280;19045;52.268;10.506;2023-04-27T08:04:16;101185.22;;;13.18;45.08
32638;BME280;19045;52.268;10.506;2023-04-27T08:06:43;101188.94;;;13.12;45.49
32638;BME280;19045;52.268;10.506;2023-04-27T08:09:10;101180.63;;;13.45;44.35
32638;BME280;19045;52.268;10.506;2023-04-27T08:11:36;101188.88;;;12.59;44.18
32638;BME280;19045;52.268;10.506;2023-04-27T08:14:04;101185.63;;;11.47;45.09
32638;BME280;19045;52.268;10.506;2023-04-27T08:16:33;101199.47;;;10.94;46.96
32638;BME280;19045;52.268;10.506;2023-04-27T08:18:59;101191.78;;;11.30;46.27
32638;BME280;19045;52.268;10.506;2023-04-27T08:21:26;101194.50;;;12.35;45.28
32638;BME280;19045;52.268;10.506;2023-04-27T08:23:54;101188.50;;;12.99;42.84
32638;BME280;19045;52.268;10.506;2023-04-27T08:26:21;101189.88;;;13.01;43.50
32638;BME280;19045;52.268;10.506;2023-04-27T08:28:48;101186.47;;;13.37;42.59
32638;BME280;19045;52.268;10.506;2023-04-27T08:31:16;101185.72;;;12.45;45.03
32638;BME280;19045;52.268;10.506;2023-04-27T08:33:42;101183.78;;;13.37;43.20
32638;BME280;19045;52.268;10.506;2023-04-27T08:36:09;101166.88;;;12.93;43.48
32638;BME280;19045;52.268;10.506;2023-04-27T08:38:36;101191.22;;;12.33;44.46
32638;BME280;19045;52.268;10.506;2023-04-27T08:41:02;101189.69;;;11.99;44.28
32638;BME280;19045;52.268;10.506;2023-04-27T08:43:32;101183.28;;;12.43;44.64
32638;BME280;19045;52.268;10.506;2023-04-27T08:46:00;101174.63;;;13.38;43.11
32638;BME280;19045;52.268;10.506;2023-04-27T08:48:28;101176.84;;;14.30;41.01
32638;BME280;19045;52.268;10.506;2023-04-27T08:50:55;101183.84;;;14.26;40.45
32638;BME280;19045;52.268;10.506;2023-04-27T08:53:27;101180.13;;;13.54;41.83
32638;BME280;19045;52.268;10.506;2023-04-27T08:55:54;101177.78;;;12.55;42.77
32638;BME280;19045;52.268;10.506;2023-04-27T08:58:22;101174.19;;;12.06;43.41
32638;BME280;19045;52.268;10.506;2023-04-27T09:01:04;101186.09;;;11.43;43.66
32638;BME280;19045;52.268;10.506;2023-04-27T09:03:33;101180.53;;;11.17;43.64
32638;BME280;19045;52.268;10.506;2023-04-27T09:08:26;101165.44;;;13.76;39.53
32638;BME280;19045;52.268;10.506;2023-04-27T09:11:30;101164.13;;;15.89;37.89
32638;BME280;19045;52.268;10.506;2023-04-27T09:13:58;101173.34;;;17.50;34.82
32638;BME280;19045;52.268;10.506;2023-04-27T09:16:26;101163.56;;;18.96;32.37
32638;BME280;19045;52.268;10.506;2023-04-27T09:18:56;101168.94;;;17.93;33.76
32638;BME280;19045;52.268;10.506;2023-04-27T09:21:23;101163.50;;;19.85;31.46
32638;BME280;19045;52.268;10.506;2023-04-27T09:23:50;101164.72;;;19.28;30.32
32638;BME280;19045;52.268;10.506;2023-04-27T09:26:24;101175.19;;;14.81;35.56
32638;BME280;19045;52.268;10.506;2023-04-27T09:28:52;101175.91;;;14.05;37.84
32638;BME280;19045;52.268;10.506;2023-04-27T09:31:21;101178.47;;;13.84;38.88
32638;BME280;19045;52.268;10.506;2023-04-27T09:34:00;101180.78;;;13.34;39.26
32638;BME280;19045;52.268;10.506;2023-04-27T09:36:27;101164.38;;;14.96;37.45
32638;BME280;19045;52.268;10.506;2023-04-27T09:38:56;101168.13;;;16.86;33.04
32638;BME280;19045;52.268;10.506;2023-04-27T09:41:24;101157.53;;;19.83;29.38
32638;BME280;19045;52.268;10.506;2023-04-27T09:43:53;101157.50;;;22.03;26.38
32638;BME280;19045;52.268;10.506;2023-04-27T09:46:21;101149.63;;;23.61;24.47
32638;BME280;19045;52.268;10.506;2023-04-27T09:48:49;101152.84;;;23.37;24.21
32638;BME280;19045;52.268;10.506;2023-04-27T09:53:48;101157.88;;;20.22;28.16
32638;BME280;19045;52.268;10.506;2023-04-27T09:56:19;101166.09;;;18.03;30.85
32638;BME280;19045;52.268;10.506;2023-04-27T09:59:09;101175.25;;;15.87;33.81
32638;BME280;19045;52.268;10.506;2023-04-27T10:01:44;101168.34;;;14.69;36.00
32638;BME280;19045;52.268;10.506;2023-04-27T10:07:14;101168.84;;;13.30;39.00
32638;BME280;19045;52.268;10.506;2023-04-27T10:09:44;101167.59;;;13.11;39.04
32638;BME280;19045;52.268;10.506;2023-04-27T10:12:17;101154.22;;;16.38;35.10
32638;BME280;19045;52.268;10.506;2023-04-27T10:14:48;101144.31;;;19.90;28.32
32638;BME280;19045;52.268;10.506;2023-04-27T10:17:16;101140.91;;;22.56;26.31
32638;BME280;19045;52.268;10.506;2023-04-27T10:19:52;101146.28;;;22.87;24.79
32638;BME280;19045;52.268;10.506;2023-04-27T10:22:21;101151.28;;;18.80;28.98
32638;BME280;19045;52.268;10.506;2023-04-27T10:24:50;101153.34;;;16.53;31.16
32638;BME280;19045;52.268;10.506;2023-04-27T10:27:18;101159.78;;;15.98;32.73
32638;BME280;19045;52.268;10.506;2023-04-27T10:29:47;101157.91;;;15.08;34.64
32638;BME280;19045;52.268;10.506;2023-04-27T10:32:18;101158.06;;;14.04;36.54
32638;BME280;19045;52.268;10.506;2023-04-27T10:34:48;101156.22;;;14.76;36.92
32638;BME280;19045;52.268;10.506;2023-04-27T10:37:15;101152.03;;;16.45;34.42
32638;BME280;19045;52.268;10.506;2023-04-27T10:39:43;101151.31;;;17.56;31.37
32638;BME280;19045;52.268;10.506;2023-04-27T10:42:10;101140.50;;;19.26;30.03
32638;BME280;19045;52.268;10.506;2023-04-27T10:44:37;101143.72;;;20.20;28.64
32638;BME280;19045;52.268;10.506;2023-04-27T10:47:13;101146.47;;;19.09;28.77
32638;BME280;19045;52.268;10.506;2023-04-27T10:49:41;101148.34;;;17.58;30.70
32638;BME280;19045;52.268;10.506;2023-04-27T10:52:08;101158.25;;;16.56;31.71
32638;BME280;19045;52.268;10.506;2023-04-27T10:54:35;101160.38;;;15.80;32.59
32638;BME280;19045;52.268;10.506;2023-04-27T10:57:06;101148.97;;;15.93;32.35
32638;BME280;19045;52.268;10.506;2023-04-27T10:59:34;101146.91;;;16.93;31.00
32638;BME280;19045;52.268;10.506;2023-04-27T11:02:01;101146.59;;;17.67;29.25
32638;BME280;19045;52.268;10.506;2023-04-27T11:04:35;101146.34;;;16.96;30.51
32638;BME280;19045;52.268;10.506;2023-04-27T11:07:02;101145.16;;;16.73;30.55
32638;BME280;19045;52.268;10.506;2023-04-27T11:09:30;101140.31;;;15.20;32.23
32638;BME280;19045;52.268;10.506;2023-04-27T11:11:56;101149.88;;;14.45;34.41
32638;BME280;19045;52.268;10.506;2023-04-27T11:14:24;101145.38;;;14.66;34.61
32638;BME280;19045;52.268;10.506;2023-04-27T11:16:51;101137.56;;;14.85;34.77
32638;BME280;19045;52.268;10.506;2023-04-27T11:19:18;101147.81;;;14.68;34.51
32638;BME280;19045;52.268;10.506;2023-04-27T11:21:45;101153.31;;;13.10;36.12
32638;BME280;19045;52.268;10.506;2023-04-27T11:24:11;101155.78;;;12.03;38.56
32638;BME280;19045;52.268;10.506;2023-04-27T11:26:38;101153.78;;;11.60;39.17
32638;BME280;19045;52.268;10.506;2023-04-27T11:29:06;101151.00;;;12.49;37.33
32638;BME280;19045;52.268;10.506;2023-04-27T11:31:40;101151.13;;;13.76;36.16
32638;BME280;19045;52.268;10.506;2023-04-27T11:34:08;101141.13;;;13.34;36.51
32638;BME280;19045;52.268;10.506;2023-04-27T11:36:35;101131.09;;;14.96;34.67
32638;BME280;19045;52.268;10.506;2023-04-27T11:39:02;101138.44;;;15.56;33.54
32638;BME280;19045;52.268;10.506;2023-04-27T11:41:33;101142.50;;;15.23;33.42
32638;BME280;19045;52.268;10.506;2023-04-27T11:44:05;101139.50;;;15.20;33.22
32638;BME280;19045;52.268;10.506;2023-04-27T11:46:34;101138.72;;;15.14;33.04
32638;BME280;19045;52.268;10.506;2023-04-27T11:49:04;101141.13;;;15.16;33.35
32638;BME280;19045;52.268;10.506;2023-04-27T11:51:33;101138.59;;;14.69;34.56
32638;BME280;19045;52.268;10.506;2023-04-27T11:54:01;101137.53;;;14.70;35.16
32638;BME280;19045;52.268;10.506;2023-04-27T11:56:34;101134.84;;;14.70;35.79
32638;BME280;19045;52.268;10.506;2023-04-27T11:59:01;101142.63;;;14.56;35.21
32638;BME280;19045;52.268;10.506;2023-04-27T12:01:29;101129.47;;;15.15;35.19
32638;BME280;19045;52.268;10.506;2023-04-27T12:03:56;101131.63;;;15.89;33.77
32638;BME280;19045;52.268;10.506;2023-04-27T12:06:25;101129.94;;;16.13;31.97
32638;BME280;19045;52.268;10.506;2023-04-27T12:08:59;101136.50;;;17.10;31.47
32638;BME280;19045;52.268;10.506;2023-04-27T12:11:40;101134.13;;;17.66;30.17
32638;BME280;19045;52.268;10.506;2023-04-27T12:14:06;101130.19;;;16.12;30.87
32638;BME280;19045;52.268;10.506;2023-04-27T12:16:33;101132.22;;;15.56;31.84
32638;BME280;19045;52.268;10.506;2023-04-27T12:18:59;101128.66;;;15.75;32.01
32638;BME280;19045;52.268;10.506;2023-04-27T12:21:28;101122.06;;;16.76;31.09
32638;BME280;19045;52.268;10.506;2023-04-27T12:23:54;101122.28;;;17.18;30.06
32638;BME280;19045;52.268;10.506;2023-04-27T12:26:21;101114.34;;;16.93;30.39
32638;BME280;19045;52.268;10.506;2023-04-27T12:28:47;101116.50;;;16.91;30.85
32638;BME280;19045;52.268;10.506;2023-04-27T12:31:14;101121.22;;;16.80;30.83
32638;BME280;19045;52.268;10.506;2023-04-27T12:33:43;101118.97;;;16.43;31.43
32638;BME280;19045;52.268;10.506;2023-04-27T12:36:09;101117.97;;;16.14;31.28
32638;BME280;19045;52.268;10.506;2023-04-27T12:38:37;101119.13;;;15.98;32.22
32638;BME280;19045;52.268;10.506;2023-04-27T12:41:04;101117.00;;;15.75;32.44
32638;BME280;19045;52.268;10.506;2023-04-27T12:43:30;101117.38;;;14.30;33.36
32638;BME280;19045;52.268;10.506;2023-04-27T12:45:57;101121.53;;;14.48;33.64
32638;BME280;19045;52.268;10.506;2023-04-27T12:48:24;101115.41;;;15.03;33.50
32638;BME280;19045;52.268;10.506;2023-04-27T12:50:50;101116.78;;;15.21;32.83
32638;BME280;19045;52.268;10.506;2023-04-27T12:53:17;101115.41;;;15.13;32.82
32638;BME280;19045;52.268;10.506;2023-04-27T12:55:46;101123.25;;;15.15;32.98
32638;BME280;19045;52.268;10.506;2023-04-27T12:58:13;101115.69;;;15.42;32.81